sensor_id;sensor_type;location;lat;lon;timestamp;temperature;humidity
64634;DHT22;51043;52.406;9.690;2023-02-28T00:01:22;-1.10;99.90
64634;DHT22;51043;52.406;9.690;2023-02-28T00:03:49;-1.10;99.90
64634;DHT22;51043;52.406;9.690;2023-02-28T00:06:16;-1.20;99.90
64634;DHT22;51043;52.406;9.690;2023-02-28T00:08:43;-1.30;99.90
64634;DHT22;51043;52.406;9.690;2023-02-28T00:11:12;-1.50;99.90
64634;DHT22;51043;52.406;9.690;2023-02-28T00:13:42;-1.60;99.90
64634;DHT22;51043;52.406;9.690;2023-02-28T00:16:13;-1.60;99.90
64634;DHT22;51043;52.406;9.690;2023-02-28T00:18:40;-1.70;99.90
64634;DHT22;51043;52.406;9.690;2023-02-28T00:21:08;-1.70;99.90
64634;DHT22;51043;52.406;9.690;2023-02-28T00:23:35;-1.80;99.90
64634;DHT22;51043;52.406;9.690;2023-02-28T00:26:03;-1.80;99.90
64634;DHT22;51043;52.406;9.690;2023-02-28T00:28:30;-1.90;99.90
64634;DHT22;51043;52.406;9.690;2023-02-28T00:30:58;-2.00;99.90
64634;DHT22;51043;52.406;9.690;2023-02-28T00:33:27;-2.00;99.90
64634;DHT22;51043;52.406;9.690;2023-02-28T00:36:05;-2.10;99.90
64634;DHT22;51043;52.406;9.690;2023-02-28T00:38:35;-2.10;99.90
64634;DHT22;51043;52.406;9.690;2023-02-28T00:41:02;-2.20;99.90
64634;DHT22;51043;52.406;9.690;2023-02-28T00:43:33;-2.20;99.90
64634;DHT22;51043;52.406;9.690;2023-02-28T00:46:01;-2.30;99.90
64634;DHT22;51043;52.406;9.690;2023-02-28T00:48:29;-2.20;99.90
64634;DHT22;51043;52.406;9.690;2023-02-28T00:50:56;-2.20;99.90
64634;DHT22;51043;52.406;9.690;2023-02-28T00:53:24;-2.20;99.90
64634;DHT22;51043;52.406;9.690;2023-02-28T00:55:51;-2.20;99.90
64634;DHT22;51043;52.406;9.690;2023-02-28T00:58:21;-2.10;99.90
64634;DHT22;51043;52.406;9.690;2023-02-28T01:00:48;-2.00;99.90
64634;DHT22;51043;52.406;9.690;2023-02-28T01:03:17;-2.00;99.90
64634;DHT22;51043;52.406;9.690;2023-02-28T01:05:45;-2.00;99.90
64634;DHT22;51043;52.406;9.690;2023-02-28T01:08:13;-2.00;99.90
64634;DHT22;51043;52.406;9.690;2023-02-28T01:10:40;-2.10;99.90
64634;DHT22;51043;52.406;9.690;2023-02-28T01:13:07;-2.20;99.90
64634;DHT22;51043;52.406;9.690;2023-02-28T01:15:36;-2.20;99.90
64634;DHT22;51043;52.406;9.690;2023-02-28T01:18:04;-2.30;99.90
64634;DHT22;51043;52.406;9.690;2023-02-28T01:20:31;-2.30;99.90
64634;DHT22;51043;52.406;9.690;2023-02-28T01:22:57;-2.40;99.90
64634;DHT22;51043;52.406;9.690;2023-02-28T01:25:24;-2.40;99.90
64634;DHT22;51043;52.406;9.690;2023-02-28T01:27:51;-2.50;99.90
64634;DHT22;51043;52.406;9.690;2023-02-28T01:30:18;-2.60;99.90
64634;DHT22;51043;52.406;9.690;2023-02-28T01:32:46;-2.60;99.90
64634;DHT22;51043;52.406;9.690;2023-02-28T01:35:13;-2.70;99.90
64634;DHT22;51043;52.406;9.690;2023-02-28T01:37:40;-2.70;99.90
64634;DHT22;51043;52.406;9.690;2023-02-28T01:40:07;-2.80;99.90
64634;DHT22;51043;52.406;9.690;2023-02-28T01:42:39;-2.80;99.90
64634;DHT22;51043;52.406;9.690;2023-02-28T01:45:25;-2.90;99.90
64634;DHT22;51043;52.406;9.690;2023-02-28T01:47:55;-2.90;99.90
64634;DHT22;51043;52.406;9.690;2023-02-28T01:50:28;-3.00;99.90
64634;DHT22;51043;52.406;9.690;2023-02-28T01:52:58;-3.00;99.90
64634;DHT22;51043;52.406;9.690;2023-02-28T01:55:28;-3.10;99.90
64634;DHT22;51043;52.406;9.690;2023-02-28T01:57:59;-3.10;99.90
64634;DHT22;51043;52.406;9.690;2023-02-28T02:00:27;-3.10;99.90
64634;DHT22;51043;52.406;9.690;2023-02-28T02:03:03;-3.10;99.90
64634;DHT22;51043;52.406;9.690;2023-02-28T02:05:31;-3.20;99.90
64634;DHT22;51043;52.406;9.690;2023-02-28T02:08:03;-3.20;99.90
64634;DHT22;51043;52.406;9.690;2023-02-28T02:10:34;-3.30;99.90
64634;DHT22;51043;52.406;9.690;2023-02-28T02:13:14;-3.30;99.90
64634;DHT22;51043;52.406;9.690;2023-02-28T02:19:11;-3.30;99.90
64634;DHT22;51043;52.406;9.690;2023-02-28T02:30:18;-3.40;99.90
64634;DHT22;51043;52.406;9.690;2023-02-28T02:33:09;-3.50;99.90
64634;DHT22;51043;52.406;9.690;2023-02-28T02:35:47;-3.50;99.90
64634;DHT22;51043;52.406;9.690;2023-02-28T02:41:44;-3.60;99.90
64634;DHT22;51043;52.406;9.690;2023-02-28T02:47:18;-3.60;99.90
64634;DHT22;51043;52.406;9.690;2023-02-28T02:49:52;-3.70;99.90
64634;DHT22;51043;52.406;9.690;2023-02-28T02:52:25;-3.70;99.90
64634;DHT22;51043;52.406;9.690;2023-02-28T02:54:56;-3.70;99.90
64634;DHT22;51043;52.406;9.690;2023-02-28T02:57:28;-3.80;99.90
64634;DHT22;51043;52.406;9.690;2023-02-28T02:59:57;-3.80;99.90
64634;DHT22;51043;52.406;9.690;2023-02-28T03:02:26;-3.80;99.90
64634;DHT22;51043;52.406;9.690;2023-02-28T03:05:00;-3.80;99.90
64634;DHT22;51043;52.406;9.690;2023-02-28T03:07:27;-3.80;99.90
64634;DHT22;51043;52.406;9.690;2023-02-28T03:09:55;-3.90;99.90
64634;DHT22;51043;52.406;9.690;2023-02-28T03:12:32;-3.90;99.90
64634;DHT22;51043;52.406;9.690;2023-02-28T03:15:24;-4.00;99.90
64634;DHT22;51043;52.406;9.690;2023-02-28T03:18:00;-4.00;99.90
64634;DHT22;51043;52.406;9.690;2023-02-28T03:28:05;-4.00;99.90
64634;DHT22;51043;52.406;9.690;2023-02-28T03:30:57;-4.00;99.90
64634;DHT22;51043;52.406;9.690;2023-02-28T03:33:36;-3.90;99.90
64634;DHT22;51043;52.406;9.690;2023-02-28T03:36:15;-4.10;99.90
64634;DHT22;51043;52.406;9.690;2023-02-28T03:38:48;-4.00;99.90
64634;DHT22;51043;52.406;9.690;2023-02-28T03:41:32;-4.10;99.90
64634;DHT22;51043;52.406;9.690;2023-02-28T03:44:10;-4.10;99.90
64634;DHT22;51043;52.406;9.690;2023-02-28T03:47:02;-4.10;99.90
64634;DHT22;51043;52.406;9.690;2023-02-28T03:49:37;-4.10;99.90
64634;DHT22;51043;52.406;9.690;2023-02-28T03:52:06;-4.00;99.90
64634;DHT22;51043;52.406;9.690;2023-02-28T03:54:46;-4.00;99.90
64634;DHT22;51043;52.406;9.690;2023-02-28T04:00:06;-4.10;99.90
64634;DHT22;51043;52.406;9.690;2023-02-28T04:02:38;-4.20;99.90
64634;DHT22;51043;52.406;9.690;2023-02-28T04:05:07;-4.20;99.90
64634;DHT22;51043;52.406;9.690;2023-02-28T04:07:34;-4.30;99.90
64634;DHT22;51043;52.406;9.690;2023-02-28T04:10:01;-4.30;99.90
64634;DHT22;51043;52.406;9.690;2023-02-28T04:12:28;-4.30;99.90
64634;DHT22;51043;52.406;9.690;2023-02-28T04:14:54;-4.40;99.90
64634;DHT22;51043;52.406;9.690;2023-02-28T04:17:21;-4.40;99.90
64634;DHT22;51043;52.406;9.690;2023-02-28T04:19:49;-4.40;99.90
64634;DHT22;51043;52.406;9.690;2023-02-28T04:22:16;-4.30;99.90
64634;DHT22;51043;52.406;9.690;2023-02-28T04:24:44;-4.40;99.90
64634;DHT22;51043;52.406;9.690;2023-02-28T04:27:11;-4.50;99.90
64634;DHT22;51043;52.406;9.690;2023-02-28T04:29:38;-4.50;99.90
64634;DHT22;51043;52.406;9.690;2023-02-28T04:32:05;-4.50;99.90
64634;DHT22;51043;52.406;9.690;2023-02-28T04:34:32;-4.60;99.90
64634;DHT22;51043;52.406;9.690;2023-02-28T04:36:59;-4.60;99.90
64634;DHT22;51043;52.406;9.690;2023-02-28T04:39:43;-4.60;99.90
64634;DHT22;51043;52.406;9.690;2023-02-28T04:42:10;-4.60;99.90
64634;DHT22;51043;52.406;9.690;2023-02-28T04:44:37;-4.60;99.90
64634;DHT22;51043;52.406;9.690;2023-02-28T04:47:04;-4.60;99.90
64634;DHT22;51043;52.406;9.690;2023-02-28T04:49:32;-4.60;99.90
64634;DHT22;51043;52.406;9.690;2023-02-28T04:51:59;-4.60;99.90
64634;DHT22;51043;52.406;9.690;2023-02-28T04:54:26;-4.60;99.90
64634;DHT22;51043;52.406;9.690;2023-02-28T04:56:53;-4.70;99.90
64634;DHT22;51043;52.406;9.690;2023-02-28T04:59:21;-4.70;99.90
64634;DHT22;51043;52.406;9.690;2023-02-28T05:01:49;-4.80;99.90
64634;DHT22;51043;52.406;9.690;2023-02-28T05:04:16;-4.70;99.90
64634;DHT22;51043;52.406;9.690;2023-02-28T05:06:43;-4.80;99.90
64634;DHT22;51043;52.406;9.690;2023-02-28T05:09:10;-4.80;99.90
64634;DHT22;51043;52.406;9.690;2023-02-28T05:11:41;-4.80;99.90
64634;DHT22;51043;52.406;9.690;2023-02-28T05:14:13;-4.80;99.90
64634;DHT22;51043;52.406;9.690;2023-02-28T05:16:42;-4.80;99.90
64634;DHT22;51043;52.406;9.690;2023-02-28T05:19:09;-3.90;99.90
64634;DHT22;51043;52.406;9.690;2023-02-28T05:21:39;-4.80;99.90
64634;DHT22;51043;52.406;9.690;2023-02-28T05:24:11;-4.90;99.90
64634;DHT22;51043;52.406;9.690;2023-02-28T05:26:41;-4.90;99.90
64634;DHT22;51043;52.406;9.690;2023-02-28T05:29:09;-4.90;99.90
64634;DHT22;51043;52.406;9.690;2023-02-28T05:31:36;-4.90;99.90
64634;DHT22;51043;52.406;9.690;2023-02-28T05:34:03;-4.90;99.90
64634;DHT22;51043;52.406;9.690;2023-02-28T05:36:31;-4.90;99.90
64634;DHT22;51043;52.406;9.690;2023-02-28T05:38:58;-4.90;99.90
64634;DHT22;51043;52.406;9.690;2023-02-28T05:41:25;-4.90;99.90
64634;DHT22;51043;52.406;9.690;2023-02-28T05:43:53;-5.00;99.90
64634;DHT22;51043;52.406;9.690;2023-02-28T05:46:22;-5.00;99.90
64634;DHT22;51043;52.406;9.690;2023-02-28T05:48:49;-5.00;99.90
64634;DHT22;51043;52.406;9.690;2023-02-28T05:51:16;-5.00;99.90
64634;DHT22;51043;52.406;9.690;2023-02-28T05:53:44;-5.00;99.90
64634;DHT22;51043;52.406;9.690;2023-02-28T05:56:11;-4.90;99.90
64634;DHT22;51043;52.406;9.690;2023-02-28T05:58:38;-5.00;99.90
64634;DHT22;51043;52.406;9.690;2023-02-28T06:04:01;-4.70;99.90
64634;DHT22;51043;52.406;9.690;2023-02-28T06:06:28;-4.70;99.90
64634;DHT22;51043;52.406;9.690;2023-02-28T06:08:56;-4.60;99.90
64634;DHT22;51043;52.406;9.690;2023-02-28T06:11:23;-4.50;99.90
64634;DHT22;51043;52.406;9.690;2023-02-28T06:13:55;-4.40;99.90
64634;DHT22;51043;52.406;9.690;2023-02-28T06:16:23;-4.30;99.90
64634;DHT22;51043;52.406;9.690;2023-02-28T06:18:50;-4.20;99.90
64634;DHT22;51043;52.406;9.690;2023-02-28T06:21:19;-4.20;99.90
64634;DHT22;51043;52.406;9.690;2023-02-28T06:23:46;-4.30;99.90
64634;DHT22;51043;52.406;9.690;2023-02-28T06:26:13;-4.30;99.90
64634;DHT22;51043;52.406;9.690;2023-02-28T06:28:40;-4.30;99.90
64634;DHT22;51043;52.406;9.690;2023-02-28T06:31:09;-4.30;99.90
64634;DHT22;51043;52.406;9.690;2023-02-28T06:33:37;-4.30;99.90
64634;DHT22;51043;52.406;9.690;2023-02-28T06:36:05;-4.40;99.90
64634;DHT22;51043;52.406;9.690;2023-02-28T06:38:33;-4.20;99.90
64634;DHT22;51043;52.406;9.690;2023-02-28T06:41:01;-4.20;99.90
64634;DHT22;51043;52.406;9.690;2023-02-28T06:43:30;-4.20;99.90
64634;DHT22;51043;52.406;9.690;2023-02-28T06:45:59;-4.20;99.90
64634;DHT22;51043;52.406;9.690;2023-02-28T06:48:27;-4.20;99.90
64634;DHT22;51043;52.406;9.690;2023-02-28T06:51:07;-4.20;99.90
64634;DHT22;51043;52.406;9.690;2023-02-28T06:53:35;-4.20;99.90
64634;DHT22;51043;52.406;9.690;2023-02-28T06:56:07;-4.20;99.90
64634;DHT22;51043;52.406;9.690;2023-02-28T06:58:34;-4.20;99.90
64634;DHT22;51043;52.406;9.690;2023-02-28T07:01:02;-4.10;99.90
64634;DHT22;51043;52.406;9.690;2023-02-28T07:03:30;-4.00;99.90
64634;DHT22;51043;52.406;9.690;2023-02-28T07:06:00;-3.30;99.90
64634;DHT22;51043;52.406;9.690;2023-02-28T07:08:27;-2.20;99.90
64634;DHT22;51043;52.406;9.690;2023-02-28T07:10:55;-1.10;99.90
64634;DHT22;51043;52.406;9.690;2023-02-28T07:13:22;-0.20;99.90
64634;DHT22;51043;52.406;9.690;2023-02-28T07:16:00;0.70;99.90
64634;DHT22;51043;52.406;9.690;2023-02-28T07:18:28;1.90;99.90
64634;DHT22;51043;52.406;9.690;2023-02-28T07:20:55;2.90;99.90
64634;DHT22;51043;52.406;9.690;2023-02-28T07:23:24;3.80;99.90
64634;DHT22;51043;52.406;9.690;2023-02-28T07:25:58;4.40;99.90
64634;DHT22;51043;52.406;9.690;2023-02-28T07:28:28;4.10;99.90
64634;DHT22;51043;52.406;9.690;2023-02-28T07:30:55;3.40;99.90
64634;DHT22;51043;52.406;9.690;2023-02-28T07:33:26;2.50;99.90
64634;DHT22;51043;52.406;9.690;2023-02-28T07:36:00;1.70;99.90
64634;DHT22;51043;52.406;9.690;2023-02-28T07:38:27;1.00;99.90
64634;DHT22;51043;52.406;9.690;2023-02-28T07:40:54;0.50;99.90
64634;DHT22;51043;52.406;9.690;2023-02-28T07:43:25;0.30;99.90
64634;DHT22;51043;52.406;9.690;2023-02-28T07:45:51;0.10;99.90
64634;DHT22;51043;52.406;9.690;2023-02-28T07:48:18;0.30;99.90
64634;DHT22;51043;52.406;9.690;2023-02-28T07:50:45;1.20;99.90
64634;DHT22;51043;52.406;9.690;2023-02-28T07:53:22;3.10;99.90
64634;DHT22;51043;52.406;9.690;2023-02-28T07:55:55;5.00;99.90
64634;DHT22;51043;52.406;9.690;2023-02-28T07:58:22;6.50;99.90
64634;DHT22;51043;52.406;9.690;2023-02-28T08:00:52;8.10;99.90
64634;DHT22;51043;52.406;9.690;2023-02-28T08:03:21;9.50;99.90
64634;DHT22;51043;52.406;9.690;2023-02-28T08:05:48;10.40;96.70
64634;DHT22;51043;52.406;9.690;2023-02-28T08:08:16;10.90;91.10
64634;DHT22;51043;52.406;9.690;2023-02-28T08:10:43;11.80;81.30
64634;DHT22;51043;52.406;9.690;2023-02-28T08:13:10;12.50;69.50
64634;DHT22;51043;52.406;9.690;2023-02-28T08:15:37;12.90;65.90
64634;DHT22;51043;52.406;9.690;2023-02-28T08:18:04;13.60;62.00
64634;DHT22;51043;52.406;9.690;2023-02-28T08:20:31;14.00;56.30
64634;DHT22;51043;52.406;9.690;2023-02-28T08:22:57;14.30;55.00
64634;DHT22;51043;52.406;9.690;2023-02-28T08:25:24;14.70;51.60
64634;DHT22;51043;52.406;9.690;2023-02-28T08:27:53;15.10;50.30
64634;DHT22;51043;52.406;9.690;2023-02-28T08:30:29;14.60;48.50
64634;DHT22;51043;52.406;9.690;2023-02-28T08:32:55;14.80;51.40
64634;DHT22;51043;52.406;9.690;2023-02-28T08:35:25;15.40;50.40
64634;DHT22;51043;52.406;9.690;2023-02-28T08:37:55;15.20;47.50
64634;DHT22;51043;52.406;9.690;2023-02-28T08:40:21;14.80;49.30
64634;DHT22;51043;52.406;9.690;2023-02-28T08:42:50;14.50;48.20
64634;DHT22;51043;52.406;9.690;2023-02-28T08:45:17;14.10;48.80
64634;DHT22;51043;52.406;9.690;2023-02-28T08:47:45;13.70;49.50
64634;DHT22;51043;52.406;9.690;2023-02-28T08:50:12;13.60;50.40
64634;DHT22;51043;52.406;9.690;2023-02-28T08:52:44;12.70;48.80
64634;DHT22;51043;52.406;9.690;2023-02-28T08:55:11;11.70;52.30
64634;DHT22;51043;52.406;9.690;2023-02-28T08:57:38;10.90;54.30
64634;DHT22;51043;52.406;9.690;2023-02-28T09:00:05;11.00;56.00
64634;DHT22;51043;52.406;9.690;2023-02-28T09:02:33;11.40;54.50
64634;DHT22;51043;52.406;9.690;2023-02-28T09:04:59;11.80;53.60
64634;DHT22;51043;52.406;9.690;2023-02-28T09:07:29;11.20;55.10
64634;DHT22;51043;52.406;9.690;2023-02-28T09:09:56;11.10;55.90
64634;DHT22;51043;52.406;9.690;2023-02-28T09:12:25;11.60;54.20
64634;DHT22;51043;52.406;9.690;2023-02-28T09:14:53;11.20;53.80
64634;DHT22;51043;52.406;9.690;2023-02-28T09:17:20;11.10;54.50
64634;DHT22;51043;52.406;9.690;2023-02-28T09:19:48;11.20;55.00
64634;DHT22;51043;52.406;9.690;2023-02-28T09:22:15;11.10;55.40
64634;DHT22;51043;52.406;9.690;2023-02-28T09:24:43;11.20;55.20
64634;DHT22;51043;52.406;9.690;2023-02-28T09:27:11;10.50;56.00
64634;DHT22;51043;52.406;9.690;2023-02-28T09:29:38;10.00;57.90
64634;DHT22;51043;52.406;9.690;2023-02-28T09:32:05;9.40;59.60
64634;DHT22;51043;52.406;9.690;2023-02-28T09:34:32;8.80;61.20
64634;DHT22;51043;52.406;9.690;2023-02-28T09:36:59;8.40;65.60
64634;DHT22;51043;52.406;9.690;2023-02-28T09:39:26;7.80;70.20
64634;DHT22;51043;52.406;9.690;2023-02-28T09:41:57;7.30;72.90
64634;DHT22;51043;52.406;9.690;2023-02-28T09:44:37;6.70;78.00
64634;DHT22;51043;52.406;9.690;2023-02-28T09:49:59;5.80;91.30
64634;DHT22;51043;52.406;9.690;2023-02-28T09:52:32;5.70;92.10
64634;DHT22;51043;52.406;9.690;2023-02-28T09:55:22;5.50;95.20
64634;DHT22;51043;52.406;9.690;2023-02-28T09:57:54;5.40;95.90
64634;DHT22;51043;52.406;9.690;2023-02-28T10:00:34;5.50;98.00
64634;DHT22;51043;52.406;9.690;2023-02-28T10:03:22;5.90;98.90
64634;DHT22;51043;52.406;9.690;2023-02-28T10:08:40;7.80;83.60
64634;DHT22;51043;52.406;9.690;2023-02-28T10:11:16;9.00;77.80
64634;DHT22;51043;52.406;9.690;2023-02-28T10:14:00;10.00;67.30
64634;DHT22;51043;52.406;9.690;2023-02-28T10:16:42;10.60;62.60
64634;DHT22;51043;52.406;9.690;2023-02-28T10:19:14;11.20;58.20
64634;DHT22;51043;52.406;9.690;2023-02-28T10:21:59;12.10;55.80
64634;DHT22;51043;52.406;9.690;2023-02-28T10:24:45;12.30;53.00
64634;DHT22;51043;52.406;9.690;2023-02-28T10:29:50;13.00;48.40
64634;DHT22;51043;52.406;9.690;2023-02-28T10:32:20;12.60;49.00
64634;DHT22;51043;52.406;9.690;2023-02-28T10:35:18;12.60;47.40
64634;DHT22;51043;52.406;9.690;2023-02-28T10:37:48;12.30;46.60
64634;DHT22;51043;52.406;9.690;2023-02-28T10:45:55;13.00;45.00
64634;DHT22;51043;52.406;9.690;2023-02-28T10:48:38;12.40;43.60
64634;DHT22;51043;52.406;9.690;2023-02-28T10:51:09;12.30;42.60
64634;DHT22;51043;52.406;9.690;2023-02-28T10:53:51;12.90;44.60
64634;DHT22;51043;52.406;9.690;2023-02-28T10:56:27;13.70;39.60
64634;DHT22;51043;52.406;9.690;2023-02-28T10:59:00;14.50;39.50
64634;DHT22;51043;52.406;9.690;2023-02-28T11:01:56;14.60;36.60
64634;DHT22;51043;52.406;9.690;2023-02-28T11:04:34;14.10;37.60
64634;DHT22;51043;52.406;9.690;2023-02-28T11:07:21;13.40;39.20
64634;DHT22;51043;52.406;9.690;2023-02-28T11:09:54;14.20;39.40
64634;DHT22;51043;52.406;9.690;2023-02-28T11:12:42;15.60;38.50
64634;DHT22;51043;52.406;9.690;2023-02-28T11:15:24;16.30;36.10
64634;DHT22;51043;52.406;9.690;2023-02-28T11:20:40;17.00;34.90
64634;DHT22;51043;52.406;9.690;2023-02-28T11:23:13;17.50;34.60
64634;DHT22;51043;52.406;9.690;2023-02-28T11:25:47;17.70;32.90
64634;DHT22;51043;52.406;9.690;2023-02-28T11:28:30;17.80;32.10
64634;DHT22;51043;52.406;9.690;2023-02-28T11:31:15;18.10;32.80
64634;DHT22;51043;52.406;9.690;2023-02-28T11:33:53;19.10;32.00
64634;DHT22;51043;52.406;9.690;2023-02-28T11:36:24;19.60;30.10
64634;DHT22;51043;52.406;9.690;2023-02-28T11:38:55;19.50;30.80
64634;DHT22;51043;52.406;9.690;2023-02-28T11:41:51;18.80;30.60
64634;DHT22;51043;52.406;9.690;2023-02-28T11:44:43;18.60;29.80
64634;DHT22;51043;52.406;9.690;2023-02-28T11:47:34;18.70;30.50
64634;DHT22;51043;52.406;9.690;2023-02-28T11:50:13;17.20;31.40
64634;DHT22;51043;52.406;9.690;2023-02-28T11:52:53;15.20;33.00
64634;DHT22;51043;52.406;9.690;2023-02-28T11:55:37;14.60;34.80
64634;DHT22;51043;52.406;9.690;2023-02-28T12:04:28;12.90;38.40
64634;DHT22;51043;52.406;9.690;2023-02-28T12:06:43;12.50;38.60
64634;DHT22;51043;52.406;9.690;2023-02-28T12:14:51;15.00;36.20
64634;DHT22;51043;52.406;9.690;2023-02-28T12:25:50;11.60;42.40
64634;DHT22;51043;52.406;9.690;2023-02-28T12:28:27;11.20;43.30
64634;DHT22;51043;52.406;9.690;2023-02-28T12:31:04;11.90;43.00
64634;DHT22;51043;52.406;9.690;2023-02-28T12:33:36;12.50;41.30
64634;DHT22;51043;52.406;9.690;2023-02-28T12:36:12;11.30;42.90
64634;DHT22;51043;52.406;9.690;2023-02-28T12:38:48;10.80;44.10
64634;DHT22;51043;52.406;9.690;2023-02-28T12:41:51;10.40;45.10
64634;DHT22;51043;52.406;9.690;2023-02-28T12:44:27;10.00;46.80
64634;DHT22;51043;52.406;9.690;2023-02-28T12:47:04;11.00;46.40
64634;DHT22;51043;52.406;9.690;2023-02-28T12:49:46;11.50;44.50
64634;DHT22;51043;52.406;9.690;2023-02-28T12:52:21;10.90;44.30
64634;DHT22;51043;52.406;9.690;2023-02-28T12:54:55;10.20;46.20
64634;DHT22;51043;52.406;9.690;2023-02-28T12:57:46;9.60;49.60
64634;DHT22;51043;52.406;9.690;2023-02-28T13:00:20;8.60;51.00
64634;DHT22;51043;52.406;9.690;2023-02-28T13:02:55;7.70;52.80
64634;DHT22;51043;52.406;9.690;2023-02-28T13:05:49;7.30;56.00
64634;DHT22;51043;52.406;9.690;2023-02-28T13:14:37;6.50;62.20
64634;DHT22;51043;52.406;9.690;2023-02-28T13:24:48;5.70;70.40
64634;DHT22;51043;52.406;9.690;2023-02-28T13:29:43;5.60;71.90
64634;DHT22;51043;52.406;9.690;2023-02-28T13:39:55;5.50;77.80
64634;DHT22;51043;52.406;9.690;2023-02-28T13:42:34;5.60;78.00
64634;DHT22;51043;52.406;9.690;2023-02-28T13:47:53;5.50;77.80
64634;DHT22;51043;52.406;9.690;2023-02-28T13:55:53;5.30;73.50
64634;DHT22;51043;52.406;9.690;2023-02-28T13:58:46;5.20;76.00
64634;DHT22;51043;52.406;9.690;2023-02-28T14:07:00;5.30;76.00
64634;DHT22;51043;52.406;9.690;2023-02-28T14:09:32;5.30;77.30
64634;DHT22;51043;52.406;9.690;2023-02-28T14:18:00;5.20;78.80
64634;DHT22;51043;52.406;9.690;2023-02-28T14:20:30;5.30;78.10
64634;DHT22;51043;52.406;9.690;2023-02-28T14:28:53;5.20;79.90
64634;DHT22;51043;52.406;9.690;2023-02-28T14:36:41;4.90;84.90
64634;DHT22;51043;52.406;9.690;2023-02-28T14:39:14;4.90;88.10
64634;DHT22;51043;52.406;9.690;2023-02-28T14:41:44;4.90;85.60
64634;DHT22;51043;52.406;9.690;2023-02-28T14:44:26;4.90;84.30
64634;DHT22;51043;52.406;9.690;2023-02-28T14:46:58;4.80;82.90
64634;DHT22;51043;52.406;9.690;2023-02-28T14:49:27;5.00;85.10
64634;DHT22;51043;52.406;9.690;2023-02-28T14:52:17;5.00;84.00
64634;DHT22;51043;52.406;9.690;2023-02-28T14:54:46;5.00;82.80
64634;DHT22;51043;52.406;9.690;2023-02-28T14:57:29;5.00;81.30
64634;DHT22;51043;52.406;9.690;2023-02-28T15:00:23;5.10;82.50
64634;DHT22;51043;52.406;9.690;2023-02-28T15:02:50;5.10;82.60
64634;DHT22;51043;52.406;9.690;2023-02-28T15:05:31;5.00;83.80
64634;DHT22;51043;52.406;9.690;2023-02-28T15:08:06;4.80;87.50
64634;DHT22;51043;52.406;9.690;2023-02-28T15:10:37;4.80;85.70
64634;DHT22;51043;52.406;9.690;2023-02-28T15:13:12;4.80;87.50
64634;DHT22;51043;52.406;9.690;2023-02-28T15:15:57;4.70;87.90
64634;DHT22;51043;52.406;9.690;2023-02-28T15:18:41;4.70;90.00
64634;DHT22;51043;52.406;9.690;2023-02-28T15:21:26;4.70;89.30
64634;DHT22;51043;52.406;9.690;2023-02-28T15:24:04;4.60;91.70
64634;DHT22;51043;52.406;9.690;2023-02-28T15:26:38;4.60;90.40
64634;DHT22;51043;52.406;9.690;2023-02-28T15:29:10;4.60;90.70
64634;DHT22;51043;52.406;9.690;2023-02-28T15:31:50;4.70;90.50
64634;DHT22;51043;52.406;9.690;2023-02-28T15:34:36;4.60;90.70
64634;DHT22;51043;52.406;9.690;2023-02-28T15:37:48;4.50;91.40
64634;DHT22;51043;52.406;9.690;2023-02-28T15:40:22;4.40;93.20
64634;DHT22;51043;52.406;9.690;2023-02-28T15:45:38;4.30;92.80
64634;DHT22;51043;52.406;9.690;2023-02-28T15:48:20;4.40;92.80
64634;DHT22;51043;52.406;9.690;2023-02-28T15:50:50;4.40;93.10
64634;DHT22;51043;52.406;9.690;2023-02-28T15:53:22;4.40;93.30
64634;DHT22;51043;52.406;9.690;2023-02-28T15:55:55;4.30;93.60
64634;DHT22;51043;52.406;9.690;2023-02-28T15:58:27;4.20;94.50
64634;DHT22;51043;52.406;9.690;2023-02-28T16:01:06;4.10;95.70
64634;DHT22;51043;52.406;9.690;2023-02-28T16:03:54;4.10;94.50
64634;DHT22;51043;52.406;9.690;2023-02-28T16:06:41;4.20;95.60
64634;DHT22;51043;52.406;9.690;2023-02-28T16:09:14;4.10;95.90
64634;DHT22;51043;52.406;9.690;2023-02-28T16:11:52;4.10;96.60
64634;DHT22;51043;52.406;9.690;2023-02-28T16:14:21;4.00;96.70
64634;DHT22;51043;52.406;9.690;2023-02-28T16:16:56;3.90;97.50
64634;DHT22;51043;52.406;9.690;2023-02-28T16:19:23;4.00;97.20
64634;DHT22;51043;52.406;9.690;2023-02-28T16:21:50;4.00;97.90
64634;DHT22;51043;52.406;9.690;2023-02-28T16:24:17;3.90;98.10
64634;DHT22;51043;52.406;9.690;2023-02-28T16:26:49;3.80;98.90
64634;DHT22;51043;52.406;9.690;2023-02-28T16:29:28;3.80;99.10
64634;DHT22;51043;52.406;9.690;2023-02-28T16:31:56;3.70;99.50
64634;DHT22;51043;52.406;9.690;2023-02-28T16:34:23;3.70;99.90
64634;DHT22;51043;52.406;9.690;2023-02-28T16:36:51;3.50;99.90
64634;DHT22;51043;52.406;9.690;2023-02-28T16:39:18;3.40;99.90
64634;DHT22;51043;52.406;9.690;2023-02-28T16:41:48;3.30;99.90
64634;DHT22;51043;52.406;9.690;2023-02-28T16:44:28;3.10;99.90
64634;DHT22;51043;52.406;9.690;2023-02-28T16:46:55;2.90;99.90
64634;DHT22;51043;52.406;9.690;2023-02-28T16:49:22;2.80;99.90
64634;DHT22;51043;52.406;9.690;2023-02-28T16:51:49;2.80;99.90
64634;DHT22;51043;52.406;9.690;2023-02-28T16:54:16;2.80;99.90
64634;DHT22;51043;52.406;9.690;2023-02-28T16:56:45;2.70;99.90
64634;DHT22;51043;52.406;9.690;2023-02-28T16:59:13;2.60;99.90
64634;DHT22;51043;52.406;9.690;2023-02-28T17:01:41;2.50;99.90
64634;DHT22;51043;52.406;9.690;2023-02-28T17:04:10;2.40;99.90
64634;DHT22;51043;52.406;9.690;2023-02-28T17:06:38;2.20;99.90
64634;DHT22;51043;52.406;9.690;2023-02-28T17:09:05;2.00;99.90
64634;DHT22;51043;52.406;9.690;2023-02-28T17:11:32;1.90;99.90
64634;DHT22;51043;52.406;9.690;2023-02-28T17:13:59;1.80;99.90
64634;DHT22;51043;52.406;9.690;2023-02-28T17:16:29;1.60;99.90
64634;DHT22;51043;52.406;9.690;2023-02-28T17:18:59;1.60;99.90
64634;DHT22;51043;52.406;9.690;2023-02-28T17:21:30;1.50;99.90
64634;DHT22;51043;52.406;9.690;2023-02-28T17:23:57;1.50;99.90
64634;DHT22;51043;52.406;9.690;2023-02-28T17:26:25;1.50;99.90
64634;DHT22;51043;52.406;9.690;2023-02-28T17:28:53;1.40;99.90
64634;DHT22;51043;52.406;9.690;2023-02-28T17:31:26;1.30;99.90
64634;DHT22;51043;52.406;9.690;2023-02-28T17:33:53;1.20;99.90
64634;DHT22;51043;52.406;9.690;2023-02-28T17:36:25;1.10;99.90
64634;DHT22;51043;52.406;9.690;2023-02-28T17:38:54;1.00;99.90
64634;DHT22;51043;52.406;9.690;2023-02-28T17:41:21;0.80;99.90
64634;DHT22;51043;52.406;9.690;2023-02-28T17:43:48;0.70;99.90
64634;DHT22;51043;52.406;9.690;2023-02-28T17:46:19;0.60;99.90
64634;DHT22;51043;52.406;9.690;2023-02-28T17:48:48;0.50;99.90
64634;DHT22;51043;52.406;9.690;2023-02-28T17:51:16;0.40;99.90
64634;DHT22;51043;52.406;9.690;2023-02-28T17:53:43;0.20;99.90
64634;DHT22;51043;52.406;9.690;2023-02-28T17:56:25;0.10;99.90
64634;DHT22;51043;52.406;9.690;2023-02-28T17:58:54;0.00;99.90
64634;DHT22;51043;52.406;9.690;2023-02-28T18:01:21;-0.10;99.90
64634;DHT22;51043;52.406;9.690;2023-02-28T18:03:49;-0.30;99.90
64634;DHT22;51043;52.406;9.690;2023-02-28T18:06:19;-0.30;99.90
64634;DHT22;51043;52.406;9.690;2023-02-28T18:08:47;-0.40;99.90
64634;DHT22;51043;52.406;9.690;2023-02-28T18:11:19;-0.50;99.90